• Join FlightAware (Why Join?)
  • Login
  • US Flag 
03:41PM EDT


 

Airport Tracker/Info


-or-


 

Live Flight TrackerFlight Track Log ✈ DAL1981 ✈ 06-Aug-2013 ✈ KSMF - KMSP

Flight Track Log - Related Links

Times and Time Zones

All times are in EDT time to prevent confusion due to time zone crossing. See the DAL1981 flight status page for this flight to view local times or setup timezone preferences in your user account.

Time Position Orientation Groundspeed Altitude Reporting Facility
EDT Latitude Longitude Course Direction KTS MPH feet Rate Location/Type
04:09PM 38.6667 -121.5833 78° East 161 185 900  Level Northern Cal TRACON
04:10PM 38.6333 -121.5333 130° Southeast 228 262 2,000 1,740 Climbing Northern Cal TRACON
04:11PM 38.6167 -121.4500 104° East 268 308 4,400 2,460 Climbing Northern Cal TRACON
04:12PM 38.6167 -121.3500 90° East 285 328 7,000 2,280 Climbing Northern Cal TRACON
04:13PM 38.5398 -121.0676 76° East  Level FlightAware Approximate
04:14PM 38.5697 -120.8990 78° East  Level FlightAware Approximate
04:14PM 38.6342 -121.2092 81° East 288 331 10,300  Level Oakland Center
04:15PM 38.5978 -120.7298 78° East  Level FlightAware Approximate
04:15PM 38.6458 -121.0858 83° East 329 379 11,500  Level Oakland Center
04:16PM 38.6908 -120.9725 63° Northeast 367 422 13,500 1,860 Climbing Oakland Center
04:17PM 38.7567 -120.8672 51° Northeast 377 434 15,400 1,800 Climbing Oakland Center
04:18PM 38.8231 -120.7581 52° Northeast 387 445 17,300 1,980 Climbing Oakland Center
04:19PM 38.9056 -120.6236 52° Northeast 400 460 19,500 1,800 Climbing Oakland Center
04:20PM 38.9764 -120.5078 52° Northeast 410 472 21,000 1,440 Climbing Oakland Center
04:21PM 39.0494 -120.3881 52° Northeast 422 486 22,500 1,260 Climbing Oakland Center
04:22PM 39.1239 -120.2658 52° Northeast 432 497 23,700 1,080 Climbing Oakland Center
04:23PM 39.1994 -120.1403 52° Northeast 442 509 24,800 1,200 Climbing Oakland Center
04:24PM 39.2897 -119.9969 51° Northeast 461 531 26,200 1,260 Climbing Oakland Center
04:25PM 39.3675 -119.8675 52° Northeast 458 527 27,400 1,080 Climbing Oakland Center
04:26PM 39.4458 -119.7383 52° Northeast 456 525 28,500 1,020 Climbing Oakland Center
04:27PM 39.5242 -119.6072 52° Northeast 458 527 29,500 960 Climbing Oakland Center
04:28PM 39.6003 -119.4750 53° Northeast 456 525 30,500 720 Climbing Oakland Center
04:29PM 39.6800 -119.3422 52° Northeast 463 533 31,000 240 Climbing Oakland Center
04:30PM 39.7586 -119.2097 52° Northeast 460 529 31,000  Level Oakland Center
04:31PM 39.8364 -119.0772 53° Northeast 458 527 31,000  Level Oakland Center
04:32PM 39.9133 -118.9433 53° Northeast 458 527 31,000  Level Oakland Center
04:33PM 39.9906 -118.8103 53° Northeast 458 527 31,000  Level Oakland Center
04:34PM 40.0683 -118.6783 52° Northeast 457 526 31,000  Level Oakland Center
04:35PM 40.1344 -118.5375 58° Northeast 453 521 31,000  Level Oakland Center
04:36PM 40.1886 -118.3503 69° East 455 524 31,000  Level Oakland Center
04:37PM 40.2306 -118.1958 70° East 451 519 31,000 360 Level Oakland Center
04:38PM 40.2672 -118.0606 70° East 459 528 31,700 780 Climbing Salt Lake Center
04:39PM 40.3083 -117.9081 70° East 464 534 32,500 780 Climbing Salt Lake Center
04:40PM 40.3561 -117.7322 70° East 460 529 33,400 720 Climbing Salt Lake Center
04:41PM 40.3961 -117.5808 71° East 460 529 34,100 540 Climbing Salt Lake Center
04:42PM 40.4364 -117.4283 71° East 461 531 34,600 420 Climbing Salt Lake Center
04:43PM 40.4844 -117.2511 70° East 461 531 35,000 180 Climbing Salt Lake Center
04:44PM 40.5261 -117.0939 71° East 468 539 35,000  Level Salt Lake Center
04:45PM 40.5767 -116.9061 70° East 478 550 35,000  Level Salt Lake Center
04:46PM 40.6350 -116.7550 63° Northeast 478 550 35,000  Level Salt Lake Center
04:47PM 40.6939 -116.6056 62° Northeast 477 549 35,000  Level Salt Lake Center
04:49PM 40.7603 -116.4322 63° Northeast 474 545 35,000  Level Salt Lake Center
04:50PM 40.8167 -116.2836 63° Northeast 475 547 35,000  Level Salt Lake Center
04:51PM 40.8858 -116.1097 62° Northeast 477 549 35,000  Level Salt Lake Center
04:52PM 40.9422 -115.9614 63° Northeast 474 545 35,000  Level Salt Lake Center
04:53PM 41.0089 -115.7853 63° Northeast 477 549 35,000  Level Salt Lake Center
04:54PM 41.0653 -115.6364 63° Northeast 476 548 35,000  Level Salt Lake Center
04:55PM 41.1214 -115.4858 64° Northeast 475 547 35,000  Level Salt Lake Center
04:56PM 41.1858 -115.3114 64° Northeast 473 544 35,000  Level Salt Lake Center
04:57PM 41.2417 -115.1619 64° Northeast 472 543 35,000  Level Salt Lake Center
04:58PM 41.3056 -114.9847 64° Northeast 475 547 35,000  Level Salt Lake Center
04:59PM 41.3636 -114.8300 63° Northeast 475 547 35,000  Level Salt Lake Center
05:00PM 41.4211 -114.6714 64° Northeast 475 547 35,000  Level Salt Lake Center
05:01PM 41.4783 -114.5131 64° Northeast 475 547 35,000  Level Salt Lake Center
05:02PM 41.5364 -114.3539 64° Northeast 477 549 35,000  Level Salt Lake Center
05:03PM 41.6050 -114.1639 64° Northeast 477 549 35,000  Level Salt Lake Center
05:04PM 41.6603 -114.0039 65° Northeast 475 547 35,000  Level Salt Lake Center
05:05PM 41.7189 -113.8447 64° Northeast 476 548 35,000  Level Salt Lake Center
05:06PM 41.7758 -113.6836 65° Northeast 479 551 35,000  Level Salt Lake Center
05:07PM 41.8311 -113.5219 65° Northeast 479 551 35,000  Level Salt Lake Center
05:08PM 41.8875 -113.3619 65° Northeast 475 547 35,000  Level Salt Lake Center
05:09PM 41.9442 -113.2017 65° Northeast 475 547 35,000  Level Salt Lake Center
05:10PM 42.0108 -113.0044 65° Northeast 481 554 35,000  Level Salt Lake Center
05:11PM 42.0678 -112.8406 65° Northeast 483 556 35,000  Level Salt Lake Center
05:12PM 42.1228 -112.6775 66° East 481 554 35,000  Level Salt Lake Center
05:13PM 42.1789 -112.5108 66° East 485 558 35,000  Level Salt Lake Center
05:14PM 42.2342 -112.3472 65° Northeast 482 555 35,000  Level Salt Lake Center
05:15PM 42.2886 -112.1794 66° East 485 558 35,000  Level Salt Lake Center
05:16PM 42.3431 -112.0131 66° East 486 559 35,000  Level Salt Lake Center
05:17PM 42.4078 -111.8092 67° East 491 565 35,000  Level Salt Lake Center
05:18PM 42.4619 -111.6425 66° East 486 559 35,000  Level Salt Lake Center
05:19PM 42.5147 -111.4739 67° East 487 560 35,000  Level Salt Lake Center
05:20PM 42.5686 -111.3058 66° East 487 560 35,000  Level Salt Lake Center
05:22PM 42.6214 -111.1375 67° East 485 558 35,000  Level Salt Lake Center
05:23PM 42.6817 -110.9442 67° East 488 562 35,000  Level Salt Lake Center
05:24PM 42.7367 -110.7694 67° East 494 568 35,000  Level Salt Lake Center
05:25PM 42.7861 -110.6081 67° East 488 562 35,000 -60 Level Salt Lake Center
05:26PM 42.8408 -110.4303 67° East 484 557 34,900  Descending Salt Lake Center
05:27PM 42.8983 -110.2389 68° East 488 562 35,000  Climbing Salt Lake Center
05:28PM 42.9508 -110.0650 68° East 491 565 35,000  Level Salt Lake Center
05:29PM 42.9997 -109.9022 68° East 487 560 35,000  Level Salt Lake Center
05:30PM 43.0531 -109.7244 68° East 487 560 35,000  Level Salt Lake Center
05:31PM 43.1028 -109.5547 68° East 483 556 35,000  Level Salt Lake Center
05:32PM 43.1531 -109.3844 68° East 483 556 35,000  Level Salt Lake Center
05:33PM 43.2039 -109.2114 68° East 490 564 35,000  Level Salt Lake Center
05:34PM 43.2625 -109.0042 69° East 489 563 35,000  Level Salt Lake Center
05:35PM 43.3128 -108.8319 68° East 488 562 35,000  Level Salt Lake Center
05:36PM 43.3617 -108.6600 69° East 486 559 35,000  Level Salt Lake Center
05:37PM 43.4100 -108.4883 69° East 484 557 35,000  Level Salt Lake Center
05:38PM 43.4592 -108.3147 69° East 489 563 35,000  Level Salt Lake Center
05:39PM 43.5208 -108.1058 68° East 494 568 35,000  Level Salt Lake Center
05:40PM 43.5719 -107.9325 68° East 492 566 35,000  Level Salt Lake Center
05:41PM 43.6239 -107.7558 68° East 499 574 35,000  Level Salt Lake Center
05:42PM 43.6750 -107.5786 68° East 500 575 35,000  Level Salt Lake Center
05:43PM 43.7261 -107.4047 68° East 494 568 35,000  Level Salt Lake Center
05:44PM 43.7747 -107.2300 69° East 491 565 35,000  Level Salt Lake Center
05:45PM 43.8347 -107.0183 68° East 495 570 35,000  Level Salt Lake Center
05:46PM 43.8872 -106.8406 68° East 498 573 35,000  Level Salt Lake Center
05:47PM 43.9342 -106.6694 69° East 496 571 35,000  Level Salt Lake Center
05:48PM 43.9675 -106.5533 68° East 495 570 35,000  Level Denver Center
05:49PM 44.0158 -106.3808 69° East 501 577 35,000  Level Denver Center
05:50PM 44.0658 -106.1775 71° East 498 573 35,000  Level Denver Center
05:51PM 44.1100 -106.0036 70° East 498 573 35,000  Level Denver Center
05:52PM 44.1586 -105.8022 71° East 494 568 35,000  Level Denver Center
05:53PM 44.2019 -105.6267 71° East 497 572 35,000  Level Denver Center
05:54PM 44.2528 -105.4194 71° East 502 578 35,000 420 Level Denver Center
05:55PM 44.3025 -105.2122 71° East 504 580 35,900 720 Climbing Denver Center
05:56PM 44.3528 -105.0039 71° East 506 582 36,600 480 Climbing Denver Center
05:57PM 44.3944 -104.8281 72° East 500 575 37,000 180 Climbing Denver Center
05:58PM 44.4433 -104.6197 72° East 503 579 37,000  Level Denver Center
05:59PM 44.4856 -104.4381 72° East 508 585 37,000 -540 Level Denver Center
06:01PM 44.5325 -104.2331 72° East 500 575 36,000 -1,020 Descending Denver Center
06:02PM 44.5744 -104.0536 72° East 505 581 35,000 -540 Descending Denver Center
06:03PM 44.6142 -103.8764 72° East 499 574 34,900 -540 Descending Denver Center
06:04PM 44.6594 -103.6706 73° East 493 567 33,900 -960 Descending Denver Center
06:05PM 44.7044 -103.4747 72° East 483 556 33,000 -480 Descending Denver Center
06:06PM 44.7439 -103.2933 73° East 487 560 33,000  Level Denver Center
06:07PM 44.7831 -103.1161 73° East 478 550 33,000  Level Denver Center
06:08PM 44.8228 -102.9375 73° East 478 550 33,000  Level Denver Center
06:09PM 44.8608 -102.7572 73° East 480 552 33,000  Level Denver Center
06:09PM 44.8917 -102.6144 73° East 479 551 33,000  Level Minneapolis Center
06:10PM 44.9222 -102.4714 73° East 477 549 33,000  Level Minneapolis Center
06:12PM 44.9681 -102.2536 73° East 480 552 33,000  Level Minneapolis Center
06:13PM 44.9978 -102.1092 74° East 480 552 33,000  Level Minneapolis Center
06:14PM 45.0422 -101.8928 74° East 479 551 33,000  Level Minneapolis Center
06:15PM 45.0703 -101.7083 78° East 481 554 33,000  Level Minneapolis Center
06:16PM 45.0694 -101.5547 90° East 487 560 33,000  Level Minneapolis Center
06:17PM 45.0494 -101.2867 96° East 490 564 33,000  Level Minneapolis Center
06:18PM 45.0367 -101.0947 95° East 491 565 33,000  Level Minneapolis Center
06:19PM 45.0231 -100.9019 96° East 492 566 33,000  Level Minneapolis Center
06:20PM 45.0097 -100.7069 95° East 495 570 33,000  Level Minneapolis Center
06:21PM 44.9950 -100.5092 96° East 503 579 33,000  Level Minneapolis Center
06:22PM 44.9739 -100.2342 96° East 506 582 33,100  Climbing Minneapolis Center
06:23PM 44.9575 -100.0403 97° East 507 583 33,000 -60 Descending Minneapolis Center
06:24PM 44.9431 -99.8486 96° East 510 587 33,000  Level Minneapolis Center
06:25PM 44.9294 -99.6553 96° East 505 581 33,000  Level Minneapolis Center
06:26PM 44.9097 -99.4200 97° East 506 582 33,000  Level Minneapolis Center
06:27PM 44.8931 -99.2214 97° East 510 587 33,000  Level Minneapolis Center
06:28PM 44.8758 -99.0225 97° East 513 590 33,000  Level Minneapolis Center
06:29PM 44.8581 -98.8222 97° East 515 593 33,000  Level Minneapolis Center
06:30PM 44.8411 -98.6197 97° East 519 597 33,000  Level Minneapolis Center
06:31PM 44.8256 -98.4589 98° East 520 598 33,000  Level Minneapolis Center
06:33PM 44.8003 -98.1844 97° East 525 604 33,000  Level Minneapolis Center
06:34PM 44.7761 -97.9406 98° East 526 605 33,000  Level Minneapolis Center
06:35PM 44.7569 -97.7397 98° East 520 598 33,000  Level Minneapolis Center
06:36PM 44.7308 -97.4975 99° East 521 600 33,000  Level Minneapolis Center
06:37PM 44.7067 -97.2500 98° East 532 612 33,000  Level Minneapolis Center
06:38PM 44.6850 -97.0378 98° East 546 628 33,000  Level Minneapolis Center
06:39PM 44.6658 -96.8661 99° East 552 635 33,000  Level Minneapolis Center
06:40PM 44.6375 -96.6025 98° East 565 650 33,000  Level Minneapolis Center
06:41PM 44.6142 -96.3814 98° East 568 654 33,000 -480 Level Minneapolis Center
06:42PM 44.5903 -96.1614 99° East 565 650 32,100 -960 Descending Minneapolis Center
06:43PM 44.5644 -95.9436 99° East 562 647 31,100 -1,020 Descending Minneapolis Center
06:44PM 44.5400 -95.7267 99° East 561 646 30,100 -1,380 Descending Minneapolis Center
06:45PM 44.5147 -95.5189 100° East 545 627 28,300 -2,040 Descending Minneapolis Center
06:46PM 44.4856 -95.2822 100° East 517 595 25,600 -2,160 Descending Minneapolis Center
06:48PM 44.5183 -95.0625 78° East 484 557 23,000 -2,280 Descending Minneapolis Center
06:49PM 44.5594 -94.8592 74° East 460 529 20,500 -2,040 Descending Minneapolis Center
06:50PM 44.5850 -94.7286 75° East 445 512 18,900 -2,220 Descending Minneapolis Center
06:51PM 44.6242 -94.5233 75° East 424 488 16,000 -2,400 Descending Minneapolis Center
06:52PM 44.6539 -94.3686 75° East 412 474 14,000 -2,040 Descending Minneapolis Center
06:53PM 44.6822 -94.2189 75° East 397 457 11,900 -1,500 Descending Minneapolis Center
06:54PM 44.7114 -94.0736 74° East 388 447 11,000 -420 Descending Minneapolis Center
06:55PM 44.7439 -93.9317 72° East 381 438 11,000 -180 Level Minneapolis Center
06:56PM 44.7881 -93.7333 73° East 377 434 10,600 -720 Descending Minneapolis Center
06:57PM 44.8164 -93.6056 73° East 340 391 9,600 -780 Descending Minneapolis Center
06:58PM 44.8433 -93.4833 73° East 327 376 9,000 -300 Descending Minneapolis Center
06:59PM 44.8844 -93.3722 62° Northeast 318 366 9,000  Level Minneapolis Center
07:00PM 44.9281 -93.2781 57° Northeast 289 333 9,000 -300 Level Minneapolis Center
07:01PM 44.9456 -93.1917 74° East 284 327 8,500 -1,020 Descending Minneapolis Center
07:03PM 44.9367 -93.0622 95° East 276 318 6,800 -1,140 Descending Minneapolis Center
07:04PM 44.9042 -92.9583 114° Southeast 237 273 5,900 -1,200 Descending Minneapolis Center
07:05PM 44.8689 -92.8928 127° Southeast 220 253 4,400 -1,020 Descending Minneapolis Center
07:06PM 44.8286 -92.9472 224° Southwest 185 213 3,700 -660 Descending Minneapolis Center
07:07PM 44.8250 -93.0244 266° West 165 190 3,000 -540 Descending Minneapolis Center
07:08PM 44.8325 -93.0811 281° West 159 183 2,600 -540 Descending Minneapolis Center
07:09PM 44.8525 -93.1278 301° West 141 162 1,900 -780 Descending Minneapolis Center
07:10PM 44.8764 -93.1819 302° West 136 157 1,000 -900 Descending Minneapolis Center